Mallard, Iowa
Current Conditions -  °F | °C
As of 4:35 PM on Saturday 25 Oct 2014 (Local Time) from KAXA Reporting Station
Clear Clear  
Wind Chill: 66°   Ceiling: Unl
Heat Index: 66°   Visibility: 10mi
Dew Point: 30°   Wind: 9mph
Humidity: 26%   Direction: 360°N
Pressure: 30.08"   Gusts: NA
Location:  42.94°N, 94.68°W
Report Text: KAXA 252135Z AUTO 36008KT 10SM CLR 19/M01 A3008 RMK AO2
Loading
Personal Weather Stations






























Interactive Weather Map
Tropical Storm Tracking
New forecast layout! Learn more

10-Day Weather Forecast

Advertisements
Track Severe Weather on mobile